createdAt,value
2023-06-01T00:00:39.406Z,100018.09
2023-06-01T00:06:02.050Z,100015.49
2023-06-01T00:11:04.757Z,100016.40
2023-06-01T00:16:07.567Z,100014.56
2023-06-01T00:21:10.538Z,100015.27
2023-06-01T00:26:13.194Z,100013.77
2023-06-01T00:31:15.884Z,100010.70
2023-06-01T00:36:18.549Z,100006.54
2023-06-01T00:41:21.829Z,100008.45
2023-06-01T00:46:24.857Z,100006.64
2023-06-01T00:51:27.646Z,100004.27
2023-06-01T00:56:32.502Z,100001.70
2023-06-01T01:01:37.500Z,100000.19
2023-06-01T01:07:09.160Z,99997.01
2023-06-01T01:12:27.712Z,99989.71
2023-06-01T01:17:34.099Z,99985.88
2023-06-01T01:22:39.498Z,99980.43
2023-06-01T01:28:03.751Z,99970.35
2023-06-01T01:33:07.876Z,99955.58
2023-06-01T01:38:10.499Z,99955.13
2023-06-01T01:43:13.311Z,99950.70
2023-06-01T01:48:28.391Z,99950.19
2023-06-01T01:53:31.519Z,99944.66
2023-06-01T01:58:34.903Z,99939.92
2023-06-01T02:03:37.605Z,99936.77
2023-06-01T02:08:40.471Z,99937.84
2023-06-01T02:13:43.018Z,99934.07
2023-06-01T02:18:46.798Z,99930.16
2023-06-01T02:23:49.367Z,99930.83
2023-06-01T02:28:51.920Z,99933.74
2023-06-01T02:33:54.624Z,99927.00
2023-06-01T02:38:57.450Z,99924.08
2023-06-01T02:44:00.275Z,99926.66
2023-06-01T02:49:02.922Z,99923.00
2023-06-01T02:54:05.494Z,99922.73
2023-06-01T02:59:08.033Z,99922.70
2023-06-01T03:04:13.299Z,99921.23
2023-06-01T03:09:16.664Z,99923.75
2023-06-01T03:14:19.455Z,99923.27
2023-06-01T03:19:22.037Z,99920.52
2023-06-01T03:24:28.610Z,99915.88
2023-06-01T03:29:31.306Z,99917.97
2023-06-01T03:34:34.395Z,99909.73
2023-06-01T03:39:37.395Z,99908.05
2023-06-01T03:44:42.839Z,99902.94
2023-06-01T03:49:45.390Z,99903.94
2023-06-01T03:54:47.948Z,99902.16
2023-06-01T03:59:51.765Z,99905.72
2023-06-01T04:04:54.366Z,99901.85
2023-06-01T04:09:57.030Z,99902.83
2023-06-01T04:14:59.646Z,99892.61
2023-06-01T04:20:02.166Z,99887.16
2023-06-01T04:25:12.630Z,99879.14
2023-06-01T04:30:16.943Z,99879.17
2023-06-01T04:35:19.602Z,99875.75
2023-06-01T04:40:22.222Z,99867.23
2023-06-01T04:45:26.726Z,99853.87
2023-06-01T04:50:30.088Z,99850.95
2023-06-01T04:55:32.969Z,99858.73
2023-06-01T05:00:36.034Z,99853.36
2023-06-01T05:05:41.242Z,99851.31
2023-06-01T05:10:44.141Z,99843.39
2023-06-01T05:15:46.762Z,99846.14
2023-06-01T05:20:49.359Z,99839.42
2023-06-01T05:25:52.115Z,99839.79
2023-06-01T05:30:55.421Z,99833.02
2023-06-01T05:35:58.183Z,99831.54
2023-06-01T05:41:00.945Z,99828.40
2023-06-01T05:46:04.364Z,99826.92
2023-06-01T05:51:06.994Z,99831.70
2023-06-01T05:56:09.726Z,99830.54
2023-06-01T06:01:12.408Z,99830.05
2023-06-01T06:06:15.058Z,99828.77
2023-06-01T06:11:17.812Z,99830.52
2023-06-01T06:16:20.710Z,99832.14
2023-06-01T06:21:23.522Z,99832.98
2023-06-01T06:26:29.884Z,99831.92
2023-06-01T06:31:32.508Z,99824.73
2023-06-01T06:36:35.101Z,99820.98
2023-06-01T06:41:37.685Z,99825.07
2023-06-01T06:46:40.525Z,99825.68
2023-06-01T06:51:43.139Z,99823.64
2023-06-01T06:56:45.833Z,99825.33
2023-06-01T07:01:48.960Z,99823.27
2023-06-01T07:06:52.927Z,99813.55
2023-06-01T07:11:55.730Z,99807.13
2023-06-01T07:16:58.375Z,99803.50
2023-06-01T07:22:01.626Z,99802.14
2023-06-01T07:27:04.692Z,99803.91
2023-06-01T07:32:07.547Z,99800.80
2023-06-01T07:37:17.687Z,99799.80
2023-06-01T07:42:21.697Z,99798.56
2023-06-01T07:47:26.227Z,99797.06
2023-06-01T07:52:28.931Z,99796.42
2023-06-01T07:57:31.757Z,99795.88
2023-06-01T08:02:34.548Z,99791.12
2023-06-01T08:07:39.032Z,99791.24
2023-06-01T08:12:43.779Z,99781.52
2023-06-01T08:17:46.723Z,99784.23
2023-06-01T08:22:50.576Z,99780.79
2023-06-01T08:27:53.809Z,99780.60
2023-06-01T08:32:56.500Z,99785.80
2023-06-01T08:37:59.133Z,99782.83
2023-06-01T08:43:20.630Z,99785.98
2023-06-01T08:48:25.520Z,99780.46
2023-06-01T08:53:29.865Z,99770.09
2023-06-01T08:58:32.953Z,99775.48
2023-06-01T09:03:35.705Z,99764.79
2023-06-01T09:08:38.423Z,99763.70
2023-06-01T09:13:42.622Z,99769.04
2023-06-01T09:18:54.975Z,99764.63
2023-06-01T09:24:18.191Z,99762.07
2023-06-01T09:29:21.094Z,99764.77
2023-06-01T09:34:23.696Z,99765.05
2023-06-01T09:39:26.998Z,99764.93
2023-06-01T09:44:34.214Z,99763.78
2023-06-01T09:49:39.837Z,99754.27
2023-06-01T09:54:47.394Z,99748.83
2023-06-01T09:59:50.193Z,99749.00
2023-06-01T10:04:59.010Z,99748.65
2023-06-01T10:10:04.754Z,99744.90
2023-06-01T10:15:20.521Z,99746.56
2023-06-01T10:20:34.292Z,99738.99
2023-06-01T10:25:44.376Z,99734.63
2023-06-01T10:30:47.323Z,99733.77
2023-06-01T10:35:50.413Z,99733.61
2023-06-01T10:40:53.407Z,99736.35
2023-06-01T10:45:56.200Z,99742.70
2023-06-01T10:51:19.458Z,99742.83
2023-06-01T10:56:24.958Z,99746.84
2023-06-01T11:01:28.109Z,99739.94
2023-06-01T11:06:34.818Z,99732.95
2023-06-01T11:11:49.916Z,99731.27
2023-06-01T11:16:53.931Z,99731.65
2023-06-01T11:22:05.039Z,99728.13
2023-06-01T11:27:10.305Z,99733.95
2023-06-01T11:32:15.032Z,99730.18
2023-06-01T11:37:19.548Z,99728.55
2023-06-01T11:42:23.587Z,99718.77
2023-06-01T11:47:31.046Z,99717.76
2023-06-01T11:52:35.574Z,99708.94
2023-06-01T11:57:42.988Z,99716.25
2023-06-01T12:02:45.903Z,99710.27
2023-06-01T12:07:54.344Z,99707.23
2023-06-01T12:12:57.117Z,99703.04
2023-06-01T12:18:00.624Z,99696.40
2023-06-01T12:23:21.662Z,99701.16
2023-06-01T12:28:27.637Z,99700.52
2023-06-01T12:33:36.893Z,99692.98
2023-06-01T12:38:53.181Z,99686.61
2023-06-01T12:43:57.046Z,99681.67
2023-06-01T12:49:18.972Z,99673.95
2023-06-01T12:54:21.691Z,99677.36
2023-06-01T12:59:24.443Z,99669.96
2023-06-01T13:04:27.450Z,99662.48
2023-06-01T13:09:30.131Z,99665.80
2023-06-01T13:14:32.715Z,99666.62
2023-06-01T13:19:35.611Z,99663.34
2023-06-01T13:29:43.727Z,99667.66
2023-06-01T13:34:46.385Z,99660.31
2023-06-01T13:39:49.120Z,99661.01
2023-06-01T13:44:52.031Z,99657.83
2023-06-01T13:49:54.799Z,99655.85
2023-06-01T13:54:58.138Z,99657.76
2023-06-01T14:00:00.909Z,99660.59
2023-06-01T14:05:08.141Z,99656.56
2023-06-01T14:10:14.755Z,99654.18
2023-06-01T14:15:17.505Z,99645.69
2023-06-01T14:20:20.507Z,99640.96
2023-06-01T14:25:23.186Z,99643.31
2023-06-01T14:30:27.620Z,99637.77
2023-06-01T14:35:30.582Z,99633.03
2023-06-01T14:40:33.184Z,99629.95
2023-06-01T14:45:35.995Z,99623.65
2023-06-01T14:50:38.641Z,99629.81
2023-06-01T14:55:41.978Z,99626.89
2023-06-01T15:00:44.606Z,99623.89
2023-06-01T15:05:47.243Z,99621.88
2023-06-01T15:10:49.893Z,99624.15
2023-06-01T15:15:52.409Z,99621.06
2023-06-01T15:20:55.007Z,99623.02
2023-06-01T15:25:57.669Z,99626.30
2023-06-01T15:31:00.569Z,99624.85
2023-06-01T15:36:03.586Z,99626.83
2023-06-01T15:41:07.487Z,99624.00
2023-06-01T15:46:10.172Z,99634.93
2023-06-01T15:51:12.709Z,99638.48
2023-06-01T15:56:16.477Z,99644.96
2023-06-01T16:01:29.177Z,99653.58
2023-06-01T16:06:32.688Z,99652.58
2023-06-01T16:11:35.529Z,99648.77
2023-06-01T16:16:38.391Z,99662.10
2023-06-01T16:21:41.107Z,99664.02
2023-06-01T16:26:43.990Z,99664.67
2023-06-01T16:31:47.008Z,99665.48
2023-06-01T16:36:49.592Z,99671.10
2023-06-01T16:41:52.537Z,99669.35
2023-06-01T16:46:55.368Z,99670.46
2023-06-01T16:51:57.979Z,99671.41
2023-06-01T16:57:02.117Z,99679.80
2023-06-01T17:02:05.114Z,99681.23
2023-06-01T17:07:07.973Z,99679.16
2023-06-01T17:12:15.806Z,99683.16
2023-06-01T17:17:20.708Z,99680.02
2023-06-01T17:22:24.047Z,99677.60
2023-06-01T17:27:27.035Z,99677.05
2023-06-01T17:32:29.877Z,99676.84
2023-06-01T17:37:32.924Z,99680.91
2023-06-01T17:42:35.971Z,99689.70
2023-06-01T17:47:38.958Z,99687.84
2023-06-01T17:52:41.900Z,99695.59
2023-06-01T17:57:44.727Z,99705.11
2023-06-01T18:02:47.724Z,99705.38
2023-06-01T18:07:50.608Z,99694.02
2023-06-01T18:12:53.540Z,99699.73
2023-06-01T18:17:56.555Z,99702.36
2023-06-01T18:22:59.435Z,99700.27
2023-06-01T18:28:02.860Z,99696.17
2023-06-01T18:33:06.724Z,99692.48
2023-06-01T18:38:10.697Z,99701.11
2023-06-01T18:43:14.943Z,99701.80
2023-06-01T18:48:24.901Z,99697.55
2023-06-01T18:53:28.027Z,99701.15
2023-06-01T18:58:30.964Z,99710.77
2023-06-01T19:03:34.945Z,99715.36
2023-06-01T19:08:38.221Z,99713.24
2023-06-01T19:13:43.800Z,99719.23
2023-06-01T19:18:51.716Z,99720.07
2023-06-01T19:23:55.968Z,99724.55
2023-06-01T19:29:11.604Z,99721.17
2023-06-01T19:34:14.954Z,99724.18
2023-06-01T19:39:39.290Z,99720.20
2023-06-01T19:44:45.471Z,99723.27
2023-06-01T19:49:51.477Z,99726.69
2023-06-01T19:54:57.080Z,99728.20
2023-06-01T20:00:00.008Z,99723.52
2023-06-01T20:05:06.993Z,99721.05
2023-06-01T20:10:20.191Z,99716.16
2023-06-01T20:15:29.689Z,99712.04
2023-06-01T20:20:37.796Z,99710.70
2023-06-01T20:25:42.702Z,99712.20
2023-06-01T20:31:06.347Z,99709.83
2023-06-01T20:36:09.853Z,99712.11
2023-06-01T20:41:14.533Z,99713.02
2023-06-01T20:46:17.464Z,99712.20
2023-06-01T20:51:34.776Z,99712.52
2023-06-01T20:56:42.664Z,99714.21
2023-06-01T21:01:48.411Z,99718.33
2023-06-01T21:06:51.824Z,99719.34
2023-06-01T21:11:56.940Z,99720.27
2023-06-01T21:17:05.170Z,99716.56
2023-06-01T21:22:07.906Z,99711.38
2023-06-01T21:27:10.541Z,99710.30
2023-06-01T21:32:13.312Z,99709.64
2023-06-01T21:37:15.874Z,99708.05
2023-06-01T21:42:19.254Z,99710.98
2023-06-01T21:47:22.085Z,99705.80
2023-06-01T21:52:24.667Z,99702.07
2023-06-01T21:57:27.456Z,99707.00
2023-06-01T22:02:30.081Z,99711.76
2023-06-01T22:07:32.814Z,99708.16
2023-06-01T22:12:36.776Z,99713.50
2023-06-01T22:17:39.570Z,99713.28
2023-06-01T22:22:42.838Z,99713.18
2023-06-01T22:27:45.535Z,99719.66
2023-06-01T22:32:48.165Z,99716.51
2023-06-01T22:37:50.906Z,99712.39
2023-06-01T22:42:54.124Z,99717.15
2023-06-01T22:47:56.817Z,99718.89
2023-06-01T22:53:00.561Z,99718.63
2023-06-01T22:58:03.145Z,99719.36
2023-06-01T23:03:06.184Z,99718.81
2023-06-01T23:08:20.421Z,99722.39
2023-06-01T23:13:24.242Z,99720.22
2023-06-01T23:18:29.816Z,99725.84
2023-06-01T23:23:34.110Z,99723.55
2023-06-01T23:29:05.012Z,99725.48
2023-06-01T23:34:07.762Z,99722.24
2023-06-01T23:39:13.135Z,99720.94
2023-06-01T23:44:16.593Z,99719.09
2023-06-01T23:49:19.361Z,99721.16
2023-06-01T23:54:22.052Z,99720.65
2023-06-01T23:59:24.650Z,99726.65
